Time;durP1;ratioP1;P1;durP2;ratioP2;P2;SDS_P1;SDS_P2;PMS_P1;PMS_P2;Temp;Humidity;BMP_temperature;BMP_pressure;BME280_temperature;BME280_humidity;BME280_pressure;Samples;Min_cycle;Max_cycle;Signal;HPM_P1;HPM_P2
2022/09/24 00:02:16;;;;;;;18.45;12.48;;;20.30;94.20;;;;;;10039862;29;20261;-82
2022/09/24 00:07:19;;;;;;;18.20;12.73;;;20.20;94.20;;;;;;10078965;29;20261;-81
2022/09/24 00:12:22;;;;;;;16.20;12.02;;;20.30;94.20;;;;;;10062745;29;20212;-81
2022/09/24 00:17:24;;;;;;;14.00;11.48;;;20.20;94.20;;;;;;10072311;29;20241;-82
2022/09/24 00:22:27;;;;;;;15.35;11.38;;;20.30;94.10;;;;;;10055089;29;20222;-81
2022/09/24 00:27:29;;;;;;;15.77;12.65;;;20.30;94.30;;;;;;10057593;29;20206;-81
2022/09/24 00:32:32;;;;;;;14.52;11.75;;;20.30;94.10;;;;;;10061403;29;20265;-83
2022/09/24 00:37:34;;;;;;;14.55;12.50;;;20.30;94.00;;;;;;10055061;29;20237;-82
2022/09/24 00:42:36;;;;;;;15.48;11.88;;;20.30;94.00;;;;;;10038841;29;20313;-81
2022/09/24 00:47:41;;;;;;;14.57;11.50;;;20.20;94.00;;;;;;10072216;29;20257;-81
2022/09/24 00:52:48;;;;;;;15.63;11.52;;;20.20;94.00;;;;;;10047942;29;20280;-82
2022/09/24 00:57:56;;;;;;;16.95;12.38;;;20.20;94.00;;;;;;10076618;29;20341;-81
2022/09/24 01:03:09;;;;;;;15.45;12.32;;;20.20;94.00;;;;;;10076741;29;20712;-82
2022/09/24 01:08:13;;;;;;;16.13;12.07;;;20.20;94.10;;;;;;10085451;29;20204;-82
2022/09/24 01:13:33;;;;;;;16.48;12.05;;;20.20;94.00;;;;;;10094607;29;20269;-82
2022/09/24 01:18:56;;;;;;;16.50;12.10;;;20.20;94.00;;;;;;10060003;29;20203;-81
2022/09/24 01:24:18;;;;;;;16.83;12.82;;;20.20;94.00;;;;;;10115788;29;20296;-82
2022/09/24 01:29:48;;;;;;;15.63;11.70;;;20.20;94.00;;;;;;10113640;29;20586;-82
2022/09/24 01:35:29;;;;;;;15.18;11.18;;;20.20;93.90;;;;;;10043000;29;20238;-81
2022/09/24 01:40:32;;;;;;;13.70;11.73;;;20.20;93.90;;;;;;10038987;29;20913;-81
2022/09/24 01:45:37;;;;;;;14.63;12.02;;;20.20;93.90;;;;;;10108467;29;20264;-82
2022/09/24 01:50:47;;;;;;;15.23;11.80;;;20.20;93.80;;;;;;10093538;29;20748;-82
2022/09/24 01:55:56;;;;;;;15.60;11.33;;;20.20;93.90;;;;;;10091214;29;20618;-82
2022/09/24 02:01:09;;;;;;;14.30;11.52;;;20.20;93.80;;;;;;10096543;29;20221;-81
2022/09/24 02:06:16;;;;;;;14.50;11.18;;;20.20;93.80;;;;;;10095603;29;20228;-81
2022/09/24 02:11:23;;;;;;;16.35;12.32;;;20.20;93.80;;;;;;10094617;29;20591;-82
2022/09/24 02:16:48;;;;;;;14.40;12.05;;;20.20;93.70;;;;;;10099868;29;20237;-81
2022/09/24 02:21:51;;;;;;;15.20;12.15;;;20.20;93.80;;;;;;10084253;29;20220;-80
2022/09/24 02:26:54;;;;;;;16.20;11.60;;;20.20;93.70;;;;;;10062838;29;20229;-81
2022/09/24 02:31:58;;;;;;;14.98;11.55;;;20.20;93.70;;;;;;10065519;29;20210;-82
2022/09/24 02:37:12;;;;;;;13.77;11.00;;;20.20;93.70;;;;;;10084570;29;20205;-81
2022/09/24 02:42:18;;;;;;;15.43;11.40;;;20.20;93.70;;;;;;10100258;29;20260;-80
2022/09/24 02:47:20;;;;;;;14.57;11.02;;;20.20;93.70;;;;;;10083899;29;20262;-81
2022/09/24 02:52:23;;;;;;;16.23;11.88;;;20.10;93.80;;;;;;10080741;29;20233;-82
2022/09/24 02:57:25;;;;;;;15.25;11.63;;;20.10;93.80;;;;;;10073699;29;20256;-81
2022/09/24 03:02:27;;;;;;;14.40;11.15;;;20.10;93.80;;;;;;10138593;29;20212;-80
2022/09/24 03:07:30;;;;;;;14.18;11.02;;;20.10;94.00;;;;;;10128861;29;20269;-81
2022/09/24 03:12:32;;;;;;;14.93;11.40;;;20.10;93.80;;;;;;10088967;29;20256;-80
2022/09/24 03:17:35;;;;;;;13.27;11.43;;;20.10;93.80;;;;;;10118185;29;20271;-81
2022/09/24 03:22:38;;;;;;;16.05;11.80;;;20.10;93.90;;;;;;10110920;29;20303;-82
2022/09/24 03:27:40;;;;;;;15.27;12.52;;;20.10;93.90;;;;;;10097657;29;20293;-80
2022/09/24 03:32:42;;;;;;;12.85;10.88;;;20.10;93.80;;;;;;10099435;29;20261;-81
2022/09/24 03:37:45;;;;;;;18.88;12.38;;;20.10;93.90;;;;;;10108024;29;20228;-81
2022/09/24 03:42:50;;;;;;;13.00;11.05;;;20.10;93.90;;;;;;10123043;29;20209;-81
2022/09/24 03:47:53;;;;;;;15.30;11.98;;;20.10;93.90;;;;;;10089131;29;20208;-82
2022/09/24 03:52:56;;;;;;;16.05;11.35;;;20.10;93.90;;;;;;10137458;29;20228;-82
2022/09/24 03:57:58;;;;;;;13.68;12.07;;;20.10;93.90;;;;;;10136554;29;20208;-82
2022/09/24 04:03:00;;;;;;;12.45;11.20;;;20.10;94.00;;;;;;10106450;29;20204;-82
2022/09/24 04:08:06;;;;;;;15.15;11.90;;;20.00;94.00;;;;;;10136957;29;20201;-81
2022/09/24 04:13:08;;;;;;;13.55;11.73;;;20.00;94.00;;;;;;10115771;29;20279;-81
2022/09/24 04:18:11;;;;;;;13.68;11.10;;;20.00;93.90;;;;;;10093580;29;20292;-81
2022/09/24 04:23:14;;;;;;;16.05;11.68;;;20.00;94.00;;;;;;10092882;29;20300;-81
2022/09/24 04:28:17;;;;;;;12.68;11.13;;;20.00;94.10;;;;;;10099621;29;20258;-81
2022/09/24 04:33:19;;;;;;;14.02;11.20;;;20.00;94.10;;;;;;10075024;29;20285;-81
2022/09/24 04:38:25;;;;;;;13.05;11.00;;;20.00;94.10;;;;;;10089902;29;20563;-81
2022/09/24 04:43:27;;;;;;;13.48;10.98;;;20.00;94.20;;;;;;10073460;29;20252;-81
2022/09/24 04:48:30;;;;;;;14.95;11.50;;;19.90;94.20;;;;;;10073885;29;20693;-81
2022/09/24 04:53:35;;;;;;;13.13;11.18;;;19.90;94.20;;;;;;10057482;29;20808;-81
2022/09/24 04:58:38;;;;;;;17.58;10.88;;;19.90;94.20;;;;;;10038843;29;20998;-82
2022/09/24 05:03:40;;;;;;;16.63;11.18;;;20.00;94.10;;;;;;10037969;29;20264;-82
2022/09/24 05:08:43;;;;;;;13.23;10.88;;;20.00;94.00;;;;;;10035875;29;20318;-82
2022/09/24 05:13:45;;;;;;;16.65;12.05;;;20.00;94.00;;;;;;10048372;29;20274;-81
2022/09/24 05:18:48;;;;;;;13.40;10.15;;;20.00;93.90;;;;;;10036602;29;20346;-81
2022/09/24 05:23:50;;;;;;;12.52;10.95;;;20.00;93.70;;;;;;10054758;29;20221;-82
2022/09/24 05:28:53;;;;;;;11.93;10.15;;;20.10;93.70;;;;;;10074590;29;20761;-82
2022/09/24 05:33:56;;;;;;;13.65;10.57;;;20.00;93.60;;;;;;10051320;29;20278;-82
2022/09/24 05:38:58;;;;;;;14.40;10.48;;;20.10;93.70;;;;;;10037714;29;20229;-81
2022/09/24 05:44:01;;;;;;;13.35;10.75;;;20.00;93.60;;;;;;10036754;29;20260;-81
2022/09/24 05:49:04;;;;;;;13.38;10.27;;;20.00;93.50;;;;;;10049460;29;20213;-81
2022/09/24 05:54:06;;;;;;;12.60;10.52;;;20.10;93.40;;;;;;10087561;29;20245;-81
2022/09/24 05:59:09;;;;;;;13.43;10.63;;;20.10;93.30;;;;;;10043393;29;20597;-81
2022/09/24 06:04:11;;;;;;;13.45;10.73;;;20.10;93.30;;;;;;10074777;29;20293;-83
2022/09/24 06:09:14;;;;;;;13.95;10.23;;;20.10;93.20;;;;;;10111647;29;20636;-82
2022/09/24 06:14:16;;;;;;;13.43;10.60;;;20.20;93.20;;;;;;10081167;29;20599;-82
2022/09/24 06:19:19;;;;;;;12.52;10.20;;;20.20;93.10;;;;;;10077759;29;20560;-82
2022/09/24 06:24:24;;;;;;;14.40;10.77;;;20.20;93.00;;;;;;10096763;29;20245;-82
2022/09/24 06:29:30;;;;;;;13.30;10.90;;;20.20;92.90;;;;;;10080502;29;20679;-82
2022/09/24 06:34:34;;;;;;;14.02;10.85;;;20.20;92.80;;;;;;10076021;29;20237;-82
2022/09/24 06:39:39;;;;;;;12.48;10.63;;;20.20;92.80;;;;;;10094801;29;20261;-83
2022/09/24 06:44:42;;;;;;;13.70;10.55;;;20.20;92.80;;;;;;10080207;29;20308;-81
2022/09/24 06:49:44;;;;;;;14.98;11.40;;;20.20;92.80;;;;;;10092580;29;20233;-82
2022/09/24 06:54:47;;;;;;;12.75;10.93;;;20.20;92.80;;;;;;10094643;29;20264;-82
2022/09/24 06:59:50;;;;;;;13.18;10.70;;;20.30;92.80;;;;;;10087968;29;20624;-82
2022/09/24 07:04:52;;;;;;;12.50;11.13;;;20.30;92.80;;;;;;10088688;29;20252;-82
2022/09/24 07:09:56;;;;;;;13.48;10.15;;;20.20;92.90;;;;;;10094831;29;20236;-83
2022/09/24 07:15:01;;;;;;;11.88;10.18;;;20.20;92.90;;;;;;10109691;29;20208;-81
2022/09/24 07:20:04;;;;;;;12.32;10.15;;;20.20;92.80;;;;;;10112147;29;20248;-82
2022/09/24 07:25:09;;;;;;;13.68;10.45;;;20.30;92.70;;;;;;10094771;29;20386;-82
2022/09/24 07:30:12;;;;;;;12.52;10.68;;;20.20;92.70;;;;;;10076705;29;20237;-82
2022/09/24 07:35:14;;;;;;;12.68;10.25;;;20.20;92.80;;;;;;10091662;29;20261;-81
2022/09/24 07:40:17;;;;;;;12.27;9.77;;;20.20;92.90;;;;;;10088234;29;20312;-81
2022/09/24 07:45:20;;;;;;;13.10;9.15;;;19.70;93.70;;;;;;10074918;29;20245;-81
2022/09/24 07:50:22;;;;;;;13.38;9.73;;;20.00;92.00;;;;;;10092435;29;20229;-81
2022/09/24 07:55:25;;;;;;;11.07;9.02;;;20.20;91.20;;;;;;10052977;29;20249;-81
2022/09/24 08:00:27;;;;;;;13.15;9.00;;;20.30;90.70;;;;;;10084967;29;20297;-82
2022/09/24 08:05:31;;;;;;;12.57;9.50;;;20.40;90.70;;;;;;10091936;29;20838;-83
2022/09/24 08:10:34;;;;;;;10.70;8.15;;;20.40;90.40;;;;;;10090818;29;20237;-83
2022/09/24 08:15:36;;;;;;;14.13;8.48;;;20.40;90.40;;;;;;10092681;29;20288;-82
2022/09/24 08:20:39;;;;;;;11.68;9.52;;;20.50;90.20;;;;;;10092613;29;20280;-84
2022/09/24 08:25:41;;;;;;;12.27;8.52;;;20.50;90.20;;;;;;10115310;29;20673;-82
2022/09/24 08:30:44;;;;;;;10.15;7.75;;;20.60;90.00;;;;;;10110870;29;20240;-83
2022/09/24 08:35:46;;;;;;;9.90;8.15;;;20.70;89.80;;;;;;10112881;29;20208;-83
2022/09/24 08:40:53;;;;;;;9.90;8.10;;;20.70;89.80;;;;;;10113569;29;20240;-83
2022/09/24 08:51:23;;;;;;;11.32;8.80;;;20.70;89.70;;;;;;10089927;29;20224;-83
2022/09/24 08:56:32;;;;;;;10.63;8.55;;;20.70;89.60;;;;;;10092763;29;20648;-83
2022/09/24 09:01:38;;;;;;;11.73;8.85;;;20.80;89.30;;;;;;10090658;29;20241;-83
2022/09/24 09:06:48;;;;;;;12.52;9.07;;;20.80;89.40;;;;;;10079289;29;20260;-81
2022/09/24 09:12:04;;;;;;;8.90;7.90;;;20.80;89.40;;;;;;10062148;29;20602;-82
2022/09/24 09:17:41;;;;;;;9.20;8.30;;;20.80;89.40;;;;;;9778809;29;10000024;-81
2022/09/24 09:22:47;;;;;;;10.85;7.45;;;20.60;90.00;;;;;;10087984;29;20232;-81
2022/09/24 09:27:56;;;;;;;12.20;8.13;;;20.70;89.80;;;;;;10079003;29;20321;-81
2022/09/24 09:33:22;;;;;;;9.35;7.20;;;20.70;90.10;;;;;;10123114;29;20276;-81
2022/09/24 09:38:50;;;;;;;10.77;8.13;;;20.70;89.80;;;;;;10113344;29;20782;-81
2022/09/24 09:44:09;;;;;;;11.63;8.02;;;20.80;89.30;;;;;;10111201;29;20228;-81
2022/09/24 09:49:13;;;;;;;10.02;8.10;;;20.80;89.20;;;;;;10128132;29;20247;-82
2022/09/24 10:05:54;;;;;;;10.02;7.53;;;20.90;89.10;;;;;;9676006;29;10000590;-86
2022/09/24 10:10:59;;;;;;;13.75;8.00;;;20.90;88.90;;;;;;10017828;29;20233;-86
2022/09/24 10:16:07;;;;;;;9.45;7.50;;;20.60;90.90;;;;;;10019039;29;20250;-86
2022/09/24 10:21:13;;;;;;;9.25;7.43;;;20.80;90.20;;;;;;10002773;29;20661;-87
2022/09/24 10:26:16;;;;;;;7.95;7.15;;;20.80;90.00;;;;;;10001889;29;20337;-86
2022/09/24 10:31:22;;;;;;;8.80;6.78;;;20.90;89.70;;;;;;10016885;29;20246;-87
2022/09/24 10:36:28;;;;;;;8.60;7.47;;;20.80;89.90;;;;;;10007411;29;20294;-86
2022/09/24 10:41:31;;;;;;;11.82;8.63;;;20.90;89.60;;;;;;10018946;29;20211;-87
2022/09/24 10:46:52;;;;;;;10.43;8.07;;;17.40;96.60;;;;;;10001566;29;20261;-87
2022/09/24 10:52:16;;;;;;;9.05;7.32;;;17.00;99.90;;;;;;10016472;29;20275;-86
2022/09/24 10:57:24;;;;;;;11.02;7.75;;;19.80;99.90;;;;;;10001382;29;20249;-86
2022/09/24 11:02:41;;;;;;;7.63;6.57;;;20.40;97.50;;;;;;9995530;29;20295;-86
2022/09/24 11:07:55;;;;;;;8.13;6.82;;;20.50;94.60;;;;;;9987851;29;20317;-86
2022/09/24 11:13:22;;;;;;;7.68;6.32;;;20.60;95.80;;;;;;10052318;29;20297;-86
2022/09/24 11:18:40;;;;;;;8.18;6.25;;;20.80;94.70;;;;;;10034875;29;20254;-86
2022/09/24 11:23:58;;;;;;;11.15;7.60;;;20.80;93.60;;;;;;10018842;29;20290;-86
2022/09/24 11:29:41;;;;;;;8.77;6.80;;;20.90;93.70;;;;;;10053035;29;20261;-86
2022/09/24 11:34:53;;;;;;;5.72;4.72;;;20.90;93.20;;;;;;10004076;29;20246;-86
2022/09/24 11:40:16;;;;;;;8.10;5.88;;;18.50;85.30;;;;;;9964030;29;20211;-86
2022/09/24 11:45:35;;;;;;;11.40;7.00;;;19.60;98.50;;;;;;9979246;29;20270;-86
2022/09/24 11:50:56;;;;;;;9.13;7.53;;;19.70;99.90;;;;;;10012740;29;20302;-86
2022/09/24 11:56:04;;;;;;;11.52;6.43;;;20.50;98.20;;;;;;10024477;29;20242;-87
2022/09/24 12:01:23;;;;;;;10.23;6.20;;;20.60;97.50;;;;;;10007470;29;20241;-87
2022/09/24 12:06:41;;;;;;;10.18;7.03;;;20.90;96.40;;;;;;10014490;29;20278;-87
2022/09/24 12:11:48;;;;;;;10.23;6.07;;;21.00;95.60;;;;;;10015816;29;20635;-87
2022/09/24 12:17:08;;;;;;;8.70;6.55;;;21.00;95.00;;;;;;10013377;29;20211;-87
2022/09/24 12:22:12;;;;;;;7.22;6.28;;;21.10;94.40;;;;;;10013646;29;20346;-87
2022/09/24 12:27:34;;;;;;;7.00;5.47;;;21.10;94.00;;;;;;10013685;29;20257;-86
2022/09/24 12:32:57;;;;;;;6.70;5.13;;;21.10;93.60;;;;;;9993408;29;20238;-87
2022/09/24 12:38:24;;;;;;;7.03;3.75;;;20.90;90.60;;;;;;9988588;29;20310;-87
2022/09/24 12:43:38;;;;;;;6.25;3.33;;;20.90;76.50;;;;;;9999523;29;20307;-87
2022/09/24 12:48:43;;;;;;;3.58;3.28;;;20.90;75.90;;;;;;10001994;29;20246;-87
2022/09/24 12:53:56;;;;;;;2.90;2.63;;;20.90;75.90;;;;;;9999103;29;20238;-87
2022/09/24 12:58:58;;;;;;;3.28;2.92;;;20.90;76.10;;;;;;10012962;29;21026;-87
2022/09/24 13:04:04;;;;;;;3.85;3.28;;;20.80;77.00;;;;;;10009881;29;20243;-87
2022/09/24 13:09:37;;;;;;;3.70;3.40;;;20.80;77.60;;;;;;10039544;23;20262;-84
2022/09/24 13:14:42;;;;;;;3.78;3.35;;;20.80;78.00;;;;;;10034007;29;20674;-84
2022/09/24 13:19:46;;;;;;;4.10;3.60;;;20.90;78.00;;;;;;10040905;29;20245;-84
2022/09/24 13:25:14;;;;;;;3.92;3.00;;;20.90;78.10;;;;;;10016998;29;20301;-84
2022/09/24 13:30:35;;;;;;;7.13;4.03;;;20.90;78.30;;;;;;10050364;29;20229;-83
2022/09/24 13:35:46;;;;;;;4.55;4.05;;;17.90;99.90;;;;;;10050832;29;20636;-84
2022/09/24 13:40:55;;;;;;;8.30;4.70;;;20.10;99.90;;;;;;10051211;29;20237;-84
2022/09/24 13:45:58;;;;;;;9.23;4.38;;;20.50;99.90;;;;;;10052422;29;20249;-83
2022/09/24 13:51:04;;;;;;;6.30;3.72;;;20.80;99.90;;;;;;10030907;29;20238;-83
2022/09/24 13:56:13;;;;;;;4.80;4.13;;;20.90;99.90;;;;;;10052406;29;20561;-84
2022/09/24 14:01:25;;;;;;;6.65;4.28;;;20.90;99.90;;;;;;10051117;29;20230;-82
2022/09/24 14:06:37;;;;;;;4.25;3.85;;;20.90;99.30;;;;;;10061098;29;20723;-83
2022/09/24 14:11:49;;;;;;;4.25;3.83;;;20.90;98.70;;;;;;10060867;29;20233;-83
2022/09/24 14:16:55;;;;;;;5.78;3.63;;;20.90;98.20;;;;;;10067586;29;20232;-83
2022/09/24 14:21:58;;;;;;;4.63;4.00;;;20.90;97.80;;;;;;10054669;29;20245;-82
2022/09/24 14:27:05;;;;;;;6.05;3.95;;;20.80;97.60;;;;;;10057908;29;20312;-83
2022/09/24 14:32:22;;;;;;;6.88;4.60;;;20.80;97.40;;;;;;10040139;29;20214;-83
2022/09/24 14:37:31;;;;;;;4.82;3.92;;;20.80;97.10;;;;;;10032317;29;20258;-83
2022/09/24 14:42:42;;;;;;;6.13;3.85;;;20.80;96.90;;;;;;10036319;29;20237;-84
2022/09/24 14:47:45;;;;;;;5.00;4.25;;;20.80;96.60;;;;;;10056966;29;20256;-84
2022/09/24 14:52:55;;;;;;;4.60;4.20;;;20.80;96.50;;;;;;10048369;29;20267;-83
2022/09/24 14:57:58;;;;;;;4.88;4.38;;;20.80;96.30;;;;;;10032782;29;20696;-83
2022/09/24 15:03:10;;;;;;;6.75;4.15;;;20.80;96.20;;;;;;10045776;29;20234;-82
2022/09/24 15:08:26;;;;;;;4.10;3.78;;;20.80;95.90;;;;;;10058954;29;20341;-82
2022/09/24 15:13:34;;;;;;;3.90;3.60;;;20.90;95.40;;;;;;10074059;29;20265;-82
2022/09/24 15:18:37;;;;;;;4.97;4.03;;;20.90;95.30;;;;;;10082397;29;20280;-82
2022/09/24 15:23:39;;;;;;;4.18;3.85;;;20.90;95.30;;;;;;10074983;29;21012;-83
2022/09/24 15:28:42;;;;;;;7.13;4.18;;;20.70;95.40;;;;;;10094936;29;20700;-82
2022/09/24 15:33:44;;;;;;;4.65;3.85;;;20.80;95.40;;;;;;10071128;29;20225;-82
2022/09/24 15:38:51;;;;;;;4.20;3.80;;;20.70;95.20;;;;;;10073400;29;20240;-82
2022/09/24 15:43:58;;;;;;;4.55;4.03;;;20.60;95.40;;;;;;10089068;29;20294;-81
2022/09/24 15:49:00;;;;;;;4.35;3.83;;;20.60;95.50;;;;;;10092776;29;20776;-81
2022/09/24 15:54:03;;;;;;;4.43;4.03;;;20.60;95.40;;;;;;10086194;29;20225;-82
2022/09/24 15:59:13;;;;;;;4.22;3.90;;;20.50;95.60;;;;;;9407624;29;10000682;-82
2022/09/24 16:04:16;;;;;;;4.22;3.80;;;20.50;95.70;;;;;;10088463;29;20275;-83
2022/09/24 16:09:18;;;;;;;4.20;3.75;;;20.50;95.90;;;;;;9750650;29;10000013;-84
2022/09/24 16:14:21;;;;;;;4.70;3.47;;;20.40;96.00;;;;;;9751811;29;10000416;-84
2022/09/24 16:19:23;;;;;;;6.63;4.43;;;20.30;95.80;;;;;;10161409;23;20271;-86
2022/09/24 16:24:26;;;;;;;6.97;4.70;;;20.30;95.50;;;;;;10149365;29;20639;-86
2022/09/24 16:29:28;;;;;;;9.90;4.15;;;20.20;95.70;;;;;;10148505;29;20279;-86
2022/09/24 16:34:31;;;;;;;9.15;4.95;;;20.20;95.80;;;;;;10164769;29;20247;-86
2022/09/24 16:39:34;;;;;;;7.30;4.35;;;20.20;95.90;;;;;;10166244;29;20239;-85
2022/09/24 16:44:36;;;;;;;7.18;4.80;;;20.10;96.00;;;;;;10165280;29;20239;-85
2022/09/24 16:49:39;;;;;;;6.43;4.80;;;20.10;96.00;;;;;;10162984;29;20263;-86
2022/09/24 16:54:41;;;;;;;5.20;4.55;;;20.10;96.00;;;;;;10163817;29;20286;-86
2022/09/24 16:59:44;;;;;;;7.22;4.95;;;20.10;96.00;;;;;;10166269;29;20671;-86
2022/09/24 17:04:46;;;;;;;5.55;4.43;;;20.10;96.00;;;;;;10163274;29;20243;-86
2022/09/24 17:15:13;;;;;;;6.00;4.35;;;20.10;96.10;;;;;;10179635;29;20292;-86
2022/09/24 17:20:17;;;;;;;6.45;5.50;;;20.10;96.30;;;;;;10166909;29;20743;-85
2022/09/24 17:25:19;;;;;;;7.60;5.28;;;20.00;96.40;;;;;;10166292;29;20286;-86
2022/09/24 17:30:22;;;;;;;6.45;5.60;;;20.00;96.30;;;;;;10150225;29;20721;-86
2022/09/24 17:35:25;;;;;;;5.25;4.75;;;20.00;96.40;;;;;;10166076;29;20234;-86
2022/09/24 17:40:27;;;;;;;5.95;5.10;;;20.00;96.50;;;;;;10167181;29;20690;-86
2022/09/24 17:45:30;;;;;;;8.50;5.50;;;19.90;96.60;;;;;;10170004;29;20243;-86
2022/09/24 17:50:32;;;;;;;6.43;5.57;;;19.90;96.80;;;;;;10174610;29;20638;-86
2022/09/24 17:55:36;;;;;;;8.73;5.53;;;19.80;96.80;;;;;;10174702;29;20671;-86
2022/09/24 18:00:38;;;;;;;6.55;5.70;;;19.90;96.90;;;;;;10206366;29;20275;-86
2022/09/24 18:05:41;;;;;;;6.55;5.78;;;19.90;96.80;;;;;;10211236;29;20219;-86
2022/09/24 18:10:44;;;;;;;7.10;6.40;;;19.90;96.80;;;;;;10196125;29;20314;-86
2022/09/24 18:15:47;;;;;;;8.23;6.90;;;20.00;96.70;;;;;;10210833;29;20211;-86
2022/09/24 18:20:51;;;;;;;11.63;7.55;;;20.00;96.70;;;;;;10195901;29;20242;-86
2022/09/24 18:26:14;;;;;;;8.75;6.97;;;20.00;96.70;;;;;;10196304;29;20285;-86
2022/09/24 18:31:19;;;;;;;10.45;7.70;;;20.00;96.60;;;;;;10210637;29;20274;-86
2022/09/24 18:36:24;;;;;;;10.70;8.18;;;20.00;96.70;;;;;;10194837;29;20277;-86
2022/09/24 18:41:29;;;;;;;11.10;7.80;;;20.00;96.60;;;;;;10210626;29;20275;-86
2022/09/24 18:46:32;;;;;;;11.57;8.05;;;20.00;96.60;;;;;;10212221;29;20286;-86
2022/09/24 18:51:36;;;;;;;12.35;8.40;;;20.00;96.60;;;;;;10211927;29;20594;-86
2022/09/24 18:56:39;;;;;;;10.07;8.63;;;20.00;96.70;;;;;;10210654;29;20235;-86
2022/09/24 19:01:45;;;;;;;12.60;7.82;;;20.00;96.80;;;;;;10147438;29;20238;-86
2022/09/24 19:06:49;;;;;;;11.60;9.32;;;19.90;96.90;;;;;;10171806;29;20258;-86
2022/09/24 19:11:52;;;;;;;11.35;9.02;;;20.00;96.80;;;;;;10155120;29;20275;-86
2022/09/24 19:16:55;;;;;;;13.20;9.27;;;20.00;96.80;;;;;;10138766;29;20900;-86
2022/09/24 19:21:58;;;;;;;9.48;8.00;;;19.90;96.70;;;;;;10171831;29;20239;-86
2022/09/24 19:27:00;;;;;;;12.27;8.98;;;20.00;96.80;;;;;;10137765;29;20342;-86
2022/09/24 19:32:04;;;;;;;13.38;8.80;;;20.00;96.70;;;;;;10170638;29;20239;-86
2022/09/24 19:37:09;;;;;;;12.05;9.02;;;20.00;96.70;;;;;;10154920;29;20290;-85
2022/09/24 19:42:12;;;;;;;12.93;9.25;;;20.00;96.60;;;;;;10154289;29;20243;-85
2022/09/24 19:47:14;;;;;;;12.43;9.70;;;20.00;96.60;;;;;;10137650;29;20259;-86
2022/09/24 19:52:20;;;;;;;12.38;9.05;;;20.00;96.60;;;;;;10170642;29;20231;-85
2022/09/24 19:57:22;;;;;;;13.05;9.90;;;20.10;96.50;;;;;;10153339;29;20709;-85
2022/09/24 20:02:24;;;;;;;12.95;9.63;;;20.00;96.50;;;;;;10153363;29;20273;-86
2022/09/24 20:07:27;;;;;;;13.38;10.10;;;20.10;96.50;;;;;;10137074;29;20263;-86
2022/09/24 20:12:33;;;;;;;16.67;10.63;;;19.90;96.50;;;;;;10169921;29;20232;-85
2022/09/24 20:17:39;;;;;;;12.07;9.73;;;20.10;96.60;;;;;;10152358;29;20263;-86
2022/09/24 20:22:42;;;;;;;16.33;10.77;;;20.00;96.60;;;;;;10151618;29;20235;-86
2022/09/24 20:27:50;;;;;;;11.85;10.00;;;20.00;96.70;;;;;;10152340;29;20785;-86
2022/09/24 20:32:52;;;;;;;14.90;11.20;;;20.00;96.70;;;;;;10168747;29;20239;-85
2022/09/24 20:37:55;;;;;;;14.57;11.25;;;20.00;96.70;;;;;;10158971;29;20254;-86
2022/09/24 20:42:57;;;;;;;15.98;11.00;;;20.00;96.70;;;;;;10158624;29;20235;-86
2022/09/24 20:48:00;;;;;;;14.23;11.27;;;20.00;96.70;;;;;;10151795;29;20311;-85
2022/09/24 20:53:02;;;;;;;16.40;10.77;;;20.00;96.70;;;;;;10151708;29;20260;-86
2022/09/24 20:58:06;;;;;;;15.35;11.45;;;20.00;96.70;;;;;;10150697;29;20657;-86
2022/09/24 21:03:08;;;;;;;13.20;11.48;;;20.00;96.70;;;;;;10205080;29;20301;-86
2022/09/24 21:08:39;;;;;;;15.48;11.50;;;20.00;96.80;;;;;;10177167;29;20274;-86
2022/09/24 21:13:44;;;;;;;16.33;12.88;;;20.00;96.80;;;;;;10171552;29;20298;-86
2022/09/24 21:18:48;;;;;;;20.55;12.43;;;20.00;96.80;;;;;;10170126;29;20684;-86
2022/09/24 21:23:53;;;;;;;18.02;11.95;;;20.00;96.80;;;;;;10159234;29;20239;-86
2022/09/24 21:28:59;;;;;;;17.70;12.75;;;20.00;96.80;;;;;;10176103;29;20266;-86
2022/09/24 21:34:02;;;;;;;19.38;12.88;;;20.00;96.80;;;;;;10159026;29;20645;-86
2022/09/24 21:39:11;;;;;;;15.45;12.50;;;20.00;97.10;;;;;;10175594;29;20746;-86
2022/09/24 21:44:15;;;;;;;17.55;12.43;;;20.00;96.90;;;;;;10174228;29;20259;-85
2022/09/24 21:49:24;;;;;;;18.92;13.13;;;20.00;96.90;;;;;;10175124;29;20258;-86
2022/09/24 21:54:26;;;;;;;16.08;11.73;;;20.00;96.90;;;;;;10156719;29;20283;-86
2022/09/24 22:04:49;;;;;;;18.77;13.40;;;20.00;96.90;;;;;;10172141;29;20757;-86
2022/09/24 22:09:52;;;;;;;37.67;21.98;;;20.00;97.10;;;;;;10140481;29;20263;-86
2022/09/24 22:14:54;;;;;;;25.83;19.50;;;19.90;97.10;;;;;;10157070;29;20208;-86
2022/09/24 22:19:57;;;;;;;29.50;19.33;;;19.90;97.00;;;;;;10173790;29;20267;-86
2022/09/24 22:24:59;;;;;;;24.98;18.98;;;19.90;97.00;;;;;;10156853;29;20243;-86
2022/09/24 22:30:03;;;;;;;24.52;18.50;;;19.90;97.00;;;;;;10154216;29;20314;-86
2022/09/24 22:40:27;;;;;;;27.40;18.35;;;19.90;97.20;;;;;;10172689;29;20243;-86
2022/09/24 22:45:29;;;;;;;24.90;17.88;;;19.80;97.20;;;;;;10172805;29;20235;-86
2022/09/24 22:50:32;;;;;;;25.25;17.92;;;19.80;97.20;;;;;;10156257;29;20739;-85
2022/09/24 22:55:34;;;;;;;24.23;17.67;;;19.90;97.20;;;;;;10145011;29;20858;-86
2022/09/24 23:00:37;;;;;;;29.75;18.10;;;19.80;97.20;;;;;;10155344;29;20361;-86
2022/09/24 23:05:39;;;;;;;22.17;17.48;;;19.90;97.30;;;;;;10172245;29;20239;-86
2022/09/24 23:10:41;;;;;;;27.10;17.95;;;19.90;97.20;;;;;;10154991;29;20317;-86
2022/09/24 23:15:44;;;;;;;24.13;18.10;;;19.90;97.20;;;;;;10172117;29;20247;-86
2022/09/24 23:20:46;;;;;;;27.38;18.30;;;19.90;97.30;;;;;;10169276;29;20287;-86
2022/09/24 23:25:49;;;;;;;24.23;17.45;;;19.80;97.30;;;;;;10170526;29;21020;-86
2022/09/24 23:30:58;;;;;;;22.38;17.92;;;19.80;97.40;;;;;;10145699;29;20263;-86
2022/09/24 23:36:02;;;;;;;22.55;17.13;;;19.80;97.40;;;;;;10171432;29;20239;-86
2022/09/24 23:41:06;;;;;;;22.27;17.13;;;19.80;97.50;;;;;;10153916;29;20207;-86
2022/09/24 23:46:09;;;;;;;22.92;16.75;;;19.80;97.50;;;;;;10153878;29;20675;-86
2022/09/24 23:51:12;;;;;;;19.75;15.77;;;19.70;97.70;;;;;;10153583;29;20279;-86
2022/09/24 23:56:15;;;;;;;22.90;16.98;;;19.80;97.50;;;;;;10168969;29;20690;-86
